Time;durP1;ratioP1;P1;durP2;ratioP2;P2;SDS_P1;SDS_P2;PMS_P1;PMS_P2;Temp;Humidity;BMP_temperature;BMP_pressure;BME280_temperature;BME280_humidity;BME280_pressure;Samples;Min_cycle;Max_cycle;Signal;HPM_P1;HPM_P2
2022/07/21 00:01:38;;;;;;;5.75;3.00;;;;;;;15.60;65.18;99412.13;1696997;83;21045;-75
2022/07/21 00:04:05;;;;;;;4.03;3.00;;;;;;;15.57;65.26;99414.38;1686013;83;21012;-74
2022/07/21 00:06:32;;;;;;;4.60;2.92;;;;;;;15.54;65.41;99411.59;1696262;82;20914;-74
2022/07/21 00:08:58;;;;;;;3.20;2.80;;;;;;;15.49;65.69;99412.72;1695834;83;21002;-73
2022/07/21 00:11:25;;;;;;;3.05;2.35;;;;;;;15.47;65.63;99408.59;1697615;83;21273;-74
2022/07/21 00:13:53;;;;;;;2.37;2.10;;;;;;;15.44;65.44;99411.14;1696283;83;20976;-76
2022/07/21 00:16:19;;;;;;;2.12;1.72;;;;;;;15.39;65.41;99410.41;1699109;83;20978;-76
2022/07/21 00:18:46;;;;;;;5.78;2.33;;;;;;;15.31;65.65;99406.58;1697290;83;21055;-74
2022/07/21 00:21:12;;;;;;;5.50;2.05;;;;;;;15.28;65.68;99404.80;1701837;83;20863;-76
2022/07/21 00:23:39;;;;;;;2.33;2.10;;;;;;;15.26;65.59;99401.50;1696306;83;21237;-73
2022/07/21 00:26:06;;;;;;;5.90;2.58;;;;;;;15.21;65.72;99395.92;1696295;83;20990;-75
2022/07/21 00:28:32;;;;;;;4.42;2.00;;;;;;;15.19;66.01;99399.33;1706372;83;20890;-74
2022/07/21 00:30:59;;;;;;;1.92;1.77;;;;;;;15.18;66.24;99399.00;1695543;83;20997;-75
2022/07/21 00:33:26;;;;;;;3.75;2.08;;;;;;;15.17;66.38;99396.03;1696439;83;20957;-74
2022/07/21 00:35:52;;;;;;;3.35;2.90;;;;;;;15.21;66.43;99393.25;1696266;83;21642;-74
2022/07/21 00:38:20;;;;;;;4.70;2.67;;;;;;;15.23;66.40;99393.86;1696449;83;20894;-75
2022/07/21 00:40:47;;;;;;;5.85;2.60;;;;;;;15.25;66.51;99392.63;1703661;83;21006;-75
2022/07/21 00:43:13;;;;;;;3.98;2.85;;;;;;;15.26;66.70;99398.83;1696353;83;20958;-75
2022/07/21 00:45:39;;;;;;;3.27;2.98;;;;;;;15.24;66.79;99399.04;1696305;83;20887;-76
2022/07/21 00:48:07;;;;;;;8.68;2.90;;;;;;;15.22;66.79;99400.27;1706218;83;21117;-75
2022/07/21 00:50:33;;;;;;;5.58;3.33;;;;;;;15.22;66.85;99401.61;1701798;83;20886;-73
2022/07/21 00:53:00;;;;;;;3.83;3.15;;;;;;;15.22;67.03;99389.55;1701349;83;20949;-76
2022/07/21 00:55:27;;;;;;;4.15;2.85;;;;;;;15.21;67.19;99395.92;1696336;83;20954;-75
2022/07/21 00:57:53;;;;;;;4.00;2.80;;;;;;;15.18;67.31;99391.80;1696439;83;20949;-74
2022/07/21 01:00:27;;;;;;;2.80;2.60;;;;;;;15.17;67.36;99396.03;1696787;83;21811;-75
2022/07/21 01:02:55;;;;;;;2.98;2.77;;;;;;;15.14;67.12;99395.09;1696369;83;20994;-75
2022/07/21 01:05:21;;;;;;;2.85;2.17;;;;;;;15.13;66.94;99395.59;1696508;83;21430;-74
2022/07/21 01:07:51;;;;;;;2.58;2.37;;;;;;;15.09;67.04;99392.19;1705943;83;20969;-73
2022/07/21 01:10:19;;;;;;;2.30;2.10;;;;;;;15.06;67.21;99386.72;1672565;83;21533;-75
2022/07/21 01:12:46;;;;;;;2.92;2.72;;;;;;;15.02;67.18;99394.83;1670361;84;21200;-74
2022/07/21 01:15:15;;;;;;;2.45;2.17;;;;;;;14.96;67.11;99390.80;1671399;84;20897;-72
2022/07/21 01:17:42;;;;;;;2.70;2.45;;;;;;;14.91;67.17;99399.95;1670958;84;20961;-73
2022/07/21 01:20:13;;;;;;;3.40;3.12;;;;;;;14.85;67.36;99396.22;1668230;84;21459;-75
2022/07/21 01:22:45;;;;;;;4.30;3.33;;;;;;;14.82;67.35;99396.61;1668281;84;20926;-74
2022/07/21 01:25:11;;;;;;;2.77;2.50;;;;;;;14.80;67.38;99398.16;1667626;84;21250;-76
2022/07/21 01:27:38;;;;;;;3.42;2.83;;;;;;;14.77;67.41;99399.89;1666842;84;20929;-73
2022/07/21 01:30:09;;;;;;;5.08;3.45;;;;;;;14.73;67.52;99399.95;1676110;84;21091;-75
2022/07/21 01:32:37;;;;;;;3.22;2.60;;;;;;;14.74;67.47;99396.27;1667532;84;21561;-73
2022/07/21 01:35:05;;;;;;;2.90;2.67;;;;;;;14.76;67.45;99398.73;1667567;84;21544;-73
2022/07/21 01:37:36;;;;;;;3.45;2.80;;;;;;;14.77;67.46;99397.72;1667570;84;20906;-74
2022/07/21 01:42:52;;;;;;;3.30;2.52;;;;;;;14.79;67.61;99398.34;1660931;84;20969;-75
2022/07/21 01:45:19;;;;;;;3.05;2.75;;;;;;;14.77;67.66;99391.86;1667609;84;20945;-73
2022/07/21 01:47:46;;;;;;;3.55;2.95;;;;;;;14.75;67.73;99397.09;1675807;84;21624;-73
2022/07/21 01:50:12;;;;;;;3.47;2.62;;;;;;;14.78;67.58;99389.48;1678709;84;21288;-73
2022/07/21 01:52:40;;;;;;;4.33;3.08;;;;;;;14.82;67.34;99386.73;1667622;84;21434;-73
2022/07/21 01:55:07;;;;;;;3.02;2.60;;;;;;;14.86;67.06;99380.44;1667627;84;20989;-75
2022/07/21 01:57:35;;;;;;;3.05;2.75;;;;;;;14.89;66.91;99384.60;1665958;84;20976;-73
2022/07/21 02:00:05;;;;;;;4.08;3.60;;;;;;;14.88;66.95;99385.62;1676669;84;20901;-74
2022/07/21 02:02:33;;;;;;;5.97;4.00;;;;;;;14.87;66.96;99384.78;1671398;84;21139;-75
2022/07/21 02:05:01;;;;;;;6.35;4.15;;;;;;;14.87;66.95;99387.46;1685999;84;21012;-74
2022/07/21 02:07:28;;;;;;;3.60;3.30;;;;;;;14.88;66.93;99390.47;1676878;84;21474;-74
2022/07/21 02:09:54;;;;;;;3.62;3.30;;;;;;;14.87;66.94;99385.29;1682174;83;21046;-76
2022/07/21 02:12:21;;;;;;;5.67;3.92;;;;;;;14.87;66.88;99382.61;1696648;83;20890;-74
2022/07/21 02:14:49;;;;;;;4.15;2.72;;;;;;;14.88;66.86;99386.95;1696793;83;20962;-74
2022/07/21 02:17:17;;;;;;;3.08;2.77;;;;;;;14.87;66.96;99384.78;1699541;83;21044;-76
2022/07/21 02:19:44;;;;;;;5.10;2.72;;;;;;;14.82;67.06;99388.06;1696145;83;21440;-74
2022/07/21 02:22:11;;;;;;;3.27;2.90;;;;;;;14.76;67.15;99384.84;1696845;83;20958;-76
2022/07/21 02:24:39;;;;;;;3.83;2.75;;;;;;;14.70;67.28;99392.31;1696869;83;21006;-77
2022/07/21 02:27:07;;;;;;;3.22;2.92;;;;;;;14.61;67.45;99389.51;1696790;83;20977;-74
2022/07/21 02:29:34;;;;;;;4.03;3.08;;;;;;;14.55;67.64;99392.13;1704944;83;20954;-77
2022/07/21 02:32:00;;;;;;;2.80;2.55;;;;;;;14.54;67.81;99395.85;1696521;83;21397;-77
2022/07/21 02:34:28;;;;;;;3.30;3.00;;;;;;;14.53;67.91;99397.70;1698226;83;20985;-76
2022/07/21 02:36:55;;;;;;;6.72;3.15;;;;;;;14.48;67.97;99398.80;1696862;83;20989;-75
2022/07/21 02:39:22;;;;;;;5.95;3.33;;;;;;;14.42;68.05;99398.23;1694553;83;21950;-77
2022/07/21 02:41:48;;;;;;;6.80;3.15;;;;;;;14.37;68.27;99391.82;1687561;83;21048;-76
2022/07/21 02:44:15;;;;;;;5.15;3.30;;;;;;;14.36;68.35;99397.71;1694851;83;21038;-77
2022/07/21 02:46:41;;;;;;;3.45;3.12;;;;;;;14.37;68.54;99404.70;1703692;83;20937;-74
2022/07/21 02:49:08;;;;;;;5.78;3.30;;;;;;;14.43;68.51;99407.94;1700324;83;21154;-76
2022/07/21 02:51:34;;;;;;;7.65;3.50;;;;;;;14.48;68.56;99401.98;1696853;83;21235;-77
2022/07/21 02:54:02;;;;;;;4.10;3.45;;;;;;;14.51;68.71;99402.94;1696670;83;21009;-77
2022/07/21 02:56:29;;;;;;;7.15;3.75;;;;;;;14.53;68.71;99407.06;1696904;83;20938;-77
2022/07/21 02:58:56;;;;;;;4.30;3.42;;;;;;;14.59;68.48;99406.28;1694850;83;20996;-75
2022/07/21 03:01:22;;;;;;;4.35;3.62;;;;;;;14.64;68.33;99410.53;1696916;83;20903;-75
2022/07/21 03:03:48;;;;;;;17.60;12.85;;;;;;;14.68;68.17;99411.78;1696881;83;21130;-75
2022/07/21 03:06:15;;;;;;;6.45;4.37;;;;;;;14.75;68.08;99408.64;1696783;83;21013;-75
2022/07/21 03:08:42;;;;;;;4.92;3.20;;;;;;;14.87;67.91;99406.72;1695614;83;21507;-75
2022/07/21 03:11:08;;;;;;;7.05;3.70;;;;;;;14.97;67.70;99401.30;1673409;83;21590;-75
2022/07/21 03:13:36;;;;;;;5.75;5.15;;;;;;;15.11;67.42;99405.70;1665314;84;20949;-75
2022/07/21 03:16:03;;;;;;;7.33;3.85;;;;;;;15.27;67.13;99409.36;1665236;84;21871;-74
2022/07/21 03:18:29;;;;;;;6.85;3.17;;;;;;;15.46;66.78;99405.63;1668553;84;21443;-75
2022/07/21 03:20:56;;;;;;;4.10;2.67;;;;;;;15.64;66.42;99404.52;1665409;84;20934;-75
2022/07/21 03:23:24;;;;;;;2.87;2.67;;;;;;;15.85;65.78;99402.99;1665388;84;21503;-75
2022/07/21 03:25:51;;;;;;;3.58;2.70;;;;;;;16.11;65.14;99406.19;1665426;84;21558;-75
2022/07/21 03:28:17;;;;;;;5.10;2.72;;;;;;;16.38;64.49;99411.81;1666093;84;21247;-75
2022/07/21 03:30:45;;;;;;;3.00;2.02;;;;;;;16.68;63.80;99405.50;1665247;84;21041;-75
2022/07/21 03:33:11;;;;;;;2.72;2.37;;;;;;;17.01;62.86;99403.00;1665287;84;20913;-75
2022/07/21 03:35:38;;;;;;;2.98;2.45;;;;;;;17.42;62.11;99411.16;1665188;84;21013;-75
2022/07/21 03:38:05;;;;;;;2.22;2.02;;;;;;;17.85;60.88;99405.44;1678256;84;20953;-75
2022/07/21 03:40:35;;;;;;;2.40;2.20;;;;;;;18.29;59.46;99402.56;1670086;84;21547;-75
2022/07/21 03:43:04;;;;;;;5.10;2.22;;;;;;;18.76;58.37;99401.59;1665372;84;21532;-75
2022/07/21 03:45:31;;;;;;;1.52;1.42;;;;;;;19.26;56.90;99403.56;1665257;84;20949;-74
2022/07/21 03:47:59;;;;;;;6.08;1.62;;;;;;;19.70;55.08;99397.25;1670182;84;21032;-74
2022/07/21 03:50:27;;;;;;;2.45;1.57;;;;;;;20.16;53.71;99397.02;1636463;86;21021;-74
2022/07/21 03:52:53;;;;;;;3.62;1.65;;;;;;;20.60;51.97;99392.40;1624615;87;21161;-74
2022/07/21 03:55:20;;;;;;;4.17;1.57;;;;;;;21.05;51.00;99393.06;1660484;85;20980;-74
2022/07/21 03:57:52;;;;;;;1.80;1.32;;;;;;;21.52;49.55;99394.56;1658809;85;21063;-77
2022/07/21 04:00:26;;;;;;;2.12;1.70;;;;;;;21.98;47.95;99389.43;1676865;85;20992;-74
2022/07/21 04:02:53;;;;;;;3.60;3.30;;;;;;;22.39;46.33;99394.97;1669163;85;20977;-74
2022/07/21 04:05:19;;;;;;;2.35;2.15;;;;;;;22.70;45.01;99394.36;1660498;85;21155;-75
2022/07/21 04:07:48;;;;;;;2.25;1.60;;;;;;;22.96;44.59;99394.98;1661173;85;21031;-74
2022/07/21 04:10:22;;;;;;;1.60;1.50;;;;;;;23.34;43.54;99383.20;1662222;85;20968;-72
2022/07/21 04:12:48;;;;;;;2.50;1.45;;;;;;;23.69;42.66;99387.67;1662759;85;21028;-74
2022/07/21 04:15:15;;;;;;;2.10;1.60;;;;;;;24.68;40.72;99385.72;1660612;85;21056;-74
2022/07/21 04:17:42;;;;;;;2.08;1.40;;;;;;;24.68;40.72;99385.72;1668478;85;21553;-74
2022/07/21 04:20:09;;;;;;;2.20;1.50;;;;;;;25.14;39.75;99380.23;1657554;85;21574;-74
2022/07/21 04:22:36;;;;;;;3.10;1.45;;;;;;;25.59;38.79;99386.38;1660523;85;20984;-74
2022/07/21 04:25:05;;;;;;;3.65;1.50;;;;;;;26.06;38.04;99379.87;1660389;85;21432;-74
2022/07/21 04:27:34;;;;;;;2.15;1.50;;;;;;;26.60;36.81;99377.36;1665050;85;20898;-74
2022/07/21 04:30:01;;;;;;;1.77;1.37;;;;;;;27.09;35.99;99375.57;1660871;85;21885;-75
2022/07/21 04:32:28;;;;;;;2.02;1.35;;;;;;;27.56;35.07;99381.89;1668575;85;20973;-75
2022/07/21 04:34:54;;;;;;;4.20;1.55;;;;;;;27.95;34.44;99384.07;1660608;85;20909;-75
2022/07/21 04:37:22;;;;;;;4.33;1.80;;;;;;;28.56;33.54;99373.96;1659405;85;20972;-77
2022/07/21 04:39:49;;;;;;;2.92;1.50;;;;;;;29.10;32.60;99370.88;1663342;85;21021;-76
2022/07/21 04:42:15;;;;;;;2.10;1.72;;;;;;;29.63;31.87;99367.43;1661655;85;21553;-73
2022/07/21 04:44:42;;;;;;;2.58;1.32;;;;;;;30.21;31.02;99363.77;1660626;85;21453;-73
2022/07/21 04:47:08;;;;;;;1.80;1.70;;;;;;;30.70;29.91;99362.59;1667562;85;21555;-76
2022/07/21 04:49:35;;;;;;;1.47;1.37;;;;;;;31.02;29.20;99365.83;1661786;85;21558;-76
2022/07/21 04:52:02;;;;;;;4.33;1.70;;;;;;;31.29;28.63;99362.23;1661289;85;21419;-76
2022/07/21 04:54:29;;;;;;;2.45;1.50;;;;;;;31.63;28.14;99356.48;1660619;85;21157;-73
2022/07/21 04:56:56;;;;;;;3.35;1.50;;;;;;;32.13;27.55;99358.59;1660631;85;20984;-74
2022/07/21 04:59:23;;;;;;;1.40;1.10;;;;;;;32.55;26.94;99355.03;1672336;85;21516;-76
2022/07/21 05:01:49;;;;;;;4.45;1.57;;;;;;;32.88;26.25;99354.91;1673584;85;20997;-74
2022/07/21 05:04:17;;;;;;;2.55;1.40;;;;;;;33.05;25.81;99352.23;1663170;85;21515;-73
2022/07/21 05:06:44;;;;;;;7.25;1.52;;;;;;;33.27;25.39;99355.45;1665612;85;21167;-75
2022/07/21 05:09:12;;;;;;;4.25;1.70;;;;;;;33.30;25.25;99352.03;1659487;85;21008;-73
2022/07/21 05:11:38;;;;;;;3.72;2.15;;;;;;;33.52;25.07;99350.52;1656924;84;21071;-76
2022/07/21 05:14:05;;;;;;;4.95;1.47;;;;;;;33.94;24.55;99345.58;1634093;86;21038;-74
2022/07/21 05:16:31;;;;;;;6.85;1.70;;;;;;;34.42;24.07;99349.45;1640650;86;21020;-72
2022/07/21 05:18:59;;;;;;;2.50;1.45;;;;;;;34.95;23.36;99351.69;1658461;85;21816;-73
2022/07/21 05:21:25;;;;;;;3.33;1.85;;;;;;;35.34;22.90;99351.88;1633213;86;21063;-74
2022/07/21 05:23:54;;;;;;;7.05;2.65;;;;;;;35.63;22.53;99353.23;1660877;85;21556;-72
2022/07/21 05:26:21;;;;;;;4.75;1.60;;;;;;;35.83;22.17;99364.84;1635569;86;21116;-71
2022/07/21 05:28:47;;;;;;;1.82;1.40;;;;;;;36.03;22.17;99367.39;1627894;86;20983;-74
2022/07/21 05:31:14;;;;;;;1.32;1.22;;;;;;;36.46;21.71;99366.91;1640869;86;21792;-73
2022/07/21 05:33:41;;;;;;;2.80;1.42;;;;;;;36.83;21.05;99355.31;1659160;85;20890;-73
2022/07/21 05:36:08;;;;;;;3.62;1.47;;;;;;;37.07;20.89;99358.11;1629572;86;21542;-73
2022/07/21 05:38:36;;;;;;;2.35;1.25;;;;;;;37.50;20.28;99357.47;1639528;86;21001;-73
2022/07/21 05:41:04;;;;;;;8.48;3.35;;;;;;;37.68;20.30;99355.45;1657895;85;20901;-75
2022/07/21 05:43:31;;;;;;;7.37;4.12;;;;;;;37.96;19.84;99360.24;1634551;86;21504;-76
2022/07/21 05:45:58;;;;;;;8.75;4.05;;;;;;;38.08;19.82;99356.01;1660273;85;20949;-72
2022/07/21 05:48:24;;;;;;;7.37;3.67;;;;;;;38.43;19.41;99362.56;1650464;86;20946;-73
2022/07/21 05:50:51;;;;;;;5.08;3.65;;;;;;;38.78;19.28;99355.14;1718221;83;21022;-73
2022/07/21 05:53:18;;;;;;;6.40;4.00;;;;;;;39.16;18.84;99355.05;1719137;83;20998;-70
2022/07/21 05:55:44;;;;;;;3.02;2.55;;;;;;;39.19;18.47;99351.57;1710856;83;21157;-73
2022/07/21 05:58:11;;;;;;;5.47;3.27;;;;;;;39.29;18.63;99353.78;1715619;83;21011;-70
2022/07/21 06:00:38;;;;;;;8.03;3.30;;;;;;;39.47;18.14;99352.20;1719534;83;20953;-70
2022/07/21 06:03:05;;;;;;;5.33;3.58;;;;;;;39.53;17.97;99353.50;1719355;83;21520;-69
2022/07/21 06:05:32;;;;;;;8.43;3.27;;;;;;;39.59;18.16;99354.02;1713169;83;21077;-70
2022/07/21 06:08:00;;;;;;;4.17;2.62;;;;;;;39.92;17.93;99355.14;1703277;83;21118;-71
2022/07/21 06:10:27;;;;;;;6.05;2.15;;;;;;;40.41;17.50;99349.75;1712477;83;21128;-71
2022/07/21 06:12:56;;;;;;;2.37;1.90;;;;;;;40.67;17.20;99350.42;1709796;83;21070;-72
2022/07/21 06:15:22;;;;;;;2.47;1.98;;;;;;;40.70;17.33;99353.86;1699937;83;21076;-71
2022/07/21 06:17:51;;;;;;;2.50;1.70;;;;;;;40.93;17.12;99344.09;1697924;83;21649;-75
2022/07/21 06:20:17;;;;;;;2.62;1.60;;;;;;;41.09;17.11;99351.09;1714748;83;21240;-73
2022/07/21 06:22:44;;;;;;;6.80;1.70;;;;;;;41.40;16.53;99347.79;1719300;83;20935;-73
2022/07/21 06:25:10;;;;;;;5.15;1.50;;;;;;;41.60;16.29;99338.08;1684516;83;21533;-71
2022/07/21 06:27:37;;;;;;;5.78;1.47;;;;;;;41.80;16.26;99342.34;1698384;83;21053;-69
2022/07/21 06:30:06;;;;;;;3.33;1.55;;;;;;;42.15;16.02;99335.79;1689169;83;21553;-74
2022/07/21 06:32:34;;;;;;;2.15;1.40;;;;;;;42.35;15.74;99332.98;1704860;83;20911;-73
2022/07/21 06:35:01;;;;;;;3.27;1.40;;;;;;;42.15;15.81;99327.41;1693563;83;21478;-71
2022/07/21 06:37:27;;;;;;;1.70;1.47;;;;;;;42.29;15.82;99322.56;1691203;83;21042;-73
2022/07/21 06:39:54;;;;;;;2.12;1.17;;;;;;;42.42;15.39;99323.26;1700652;83;21042;-70
2022/07/21 06:42:21;;;;;;;1.80;1.30;;;;;;;42.30;15.67;99323.55;1695467;83;21583;-72
2022/07/21 06:44:48;;;;;;;4.58;1.15;;;;;;;42.60;15.54;99321.26;1695912;83;21261;-72
2022/07/21 06:47:16;;;;;;;2.08;1.20;;;;;;;42.99;15.31;99320.98;1692903;83;21038;-73
2022/07/21 06:49:43;;;;;;;7.85;1.30;;;;;;;43.40;14.96;99311.23;1699658;83;20962;-75
2022/07/21 06:52:09;;;;;;;4.28;0.85;;;;;;;43.52;14.44;99313.69;1699971;83;21026;-76
2022/07/21 06:54:36;;;;;;;1.40;0.78;;;;;;;43.56;14.05;99317.31;1691150;83;21520;-74
2022/07/21 06:57:03;;;;;;;2.62;0.82;;;;;;;43.41;13.99;99317.02;1716563;83;21275;-72
2022/07/21 06:59:29;;;;;;;2.75;1.10;;;;;;;43.19;14.33;99311.09;1719231;83;20998;-74
2022/07/21 07:01:56;;;;;;;2.70;1.17;;;;;;;43.42;14.29;99318.64;1715042;83;21089;-74
2022/07/21 07:04:23;;;;;;;3.87;1.07;;;;;;;43.57;14.09;99316.10;1690234;83;21095;-74
2022/07/21 07:06:51;;;;;;;1.72;0.90;;;;;;;43.84;14.32;99322.23;1713001;83;21066;-73
2022/07/21 07:09:18;;;;;;;1.00;0.62;;;;;;;44.33;13.87;99321.55;1718916;83;21272;-74
2022/07/21 07:11:46;;;;;;;1.57;0.90;;;;;;;44.58;13.28;99314.00;1717739;83;21053;-73
2022/07/21 07:14:14;;;;;;;3.27;0.65;;;;;;;44.74;13.31;99314.36;1708593;83;20977;-74
2022/07/21 07:16:42;;;;;;;1.77;0.60;;;;;;;45.01;12.80;99309.74;1698790;83;20991;-73
2022/07/21 07:19:08;;;;;;;1.57;0.80;;;;;;;45.05;12.46;99316.16;1701131;83;21055;-74
2022/07/21 07:21:35;;;;;;;1.27;0.70;;;;;;;44.74;12.37;99312.96;1692293;83;21241;-73
2022/07/21 07:24:02;;;;;;;1.05;0.70;;;;;;;43.77;12.78;99320.02;1700672;83;20999;-73
2022/07/21 07:26:29;;;;;;;3.15;0.90;;;;;;;43.60;13.47;99316.72;1692141;83;21010;-74
2022/07/21 07:28:55;;;;;;;1.37;0.70;;;;;;;43.77;13.31;99315.81;1692080;83;20972;-76
2022/07/21 07:31:22;;;;;;;2.15;0.80;;;;;;;44.08;13.12;99313.69;1700441;83;21038;-75
2022/07/21 07:33:49;;;;;;;0.93;0.57;;;;;;;44.19;12.86;99316.75;1691384;83;21420;-72
2022/07/21 07:36:16;;;;;;;5.05;1.30;;;;;;;44.43;12.78;99308.76;1659173;85;20990;-72
2022/07/21 07:38:43;;;;;;;2.08;0.85;;;;;;;44.86;12.64;99307.55;1627878;86;21010;-74
2022/07/21 07:41:10;;;;;;;1.27;0.62;;;;;;;44.97;12.18;99313.98;1639038;86;20986;-74
2022/07/21 07:43:36;;;;;;;2.35;0.60;;;;;;;45.08;11.77;99313.33;1645862;86;21607;-77
2022/07/21 07:46:04;;;;;;;2.00;1.00;;;;;;;45.10;11.92;99312.95;1640108;86;21176;-78
2022/07/21 07:48:31;;;;;;;2.40;0.50;;;;;;;45.52;11.78;99306.41;1661684;85;21009;-76
2022/07/21 07:50:59;;;;;;;0.55;0.55;;;;;;;45.71;11.46;99307.37;1634489;86;21057;-76
2022/07/21 07:53:26;;;;;;;2.05;0.60;;;;;;;45.31;11.41;99306.70;1658222;85;20989;-78
2022/07/21 07:55:53;;;;;;;3.87;0.60;;;;;;;44.69;11.55;99306.35;1645374;86;20983;-78
2022/07/21 07:58:20;;;;;;;5.08;1.25;;;;;;;44.15;11.65;99301.91;1638472;86;21642;-77
2022/07/21 08:00:47;;;;;;;3.47;0.95;;;;;;;43.89;11.84;99307.03;1658438;85;21496;-77
2022/07/21 08:03:15;;;;;;;6.60;0.80;;;;;;;44.24;11.67;99306.33;1634731;86;20927;-77
2022/07/21 08:05:41;;;;;;;0.90;0.68;;;;;;;44.72;11.06;99306.95;1692148;83;21453;-76
2022/07/21 08:08:08;;;;;;;2.00;0.90;;;;;;;44.85;10.95;99300.32;1692169;83;20997;-76
2022/07/21 08:10:36;;;;;;;3.15;0.88;;;;;;;44.77;10.96;99305.14;1692186;83;21645;-76
2022/07/21 08:13:03;;;;;;;2.95;1.32;;;;;;;44.95;11.11;99304.36;1695972;83;20959;-75
2022/07/21 08:15:30;;;;;;;2.12;1.05;;;;;;;44.97;10.89;99293.53;1696528;83;20993;-76
2022/07/21 08:17:56;;;;;;;3.60;0.60;;;;;;;44.91;11.06;99295.14;1707206;83;20965;-76
2022/07/21 08:20:23;;;;;;;2.95;0.47;;;;;;;44.99;11.04;99297.53;1705683;83;21068;-76
2022/07/21 08:22:50;;;;;;;1.37;0.47;;;;;;;45.24;10.81;99290.42;1694790;83;20932;-77
2022/07/21 08:25:16;;;;;;;1.17;0.50;;;;;;;45.53;10.70;99289.73;1696289;83;21572;-76
2022/07/21 08:27:44;;;;;;;2.02;0.72;;;;;;;45.43;10.55;99287.19;1696457;83;20926;-76
2022/07/21 08:30:12;;;;;;;2.22;0.72;;;;;;;45.02;10.86;99290.31;1696327;83;21413;-76
2022/07/21 08:32:38;;;;;;;1.98;0.90;;;;;;;44.78;11.03;99291.92;1696414;83;20985;-75
2022/07/21 08:35:08;;;;;;;1.37;0.60;;;;;;;44.96;11.17;99293.31;1696410;83;21163;-75
2022/07/21 08:37:36;;;;;;;2.77;0.70;;;;;;;45.30;11.12;99299.47;1696333;83;20894;-76
2022/07/21 08:40:04;;;;;;;2.17;0.45;;;;;;;45.29;10.93;99295.69;1696474;83;20926;-76
2022/07/21 08:42:32;;;;;;;2.85;0.50;;;;;;;45.24;10.65;99288.45;1696533;83;20998;-75
2022/07/21 08:44:59;;;;;;;1.00;0.57;;;;;;;44.93;10.91;99292.13;1696687;83;20986;-75
2022/07/21 08:47:26;;;;;;;2.47;0.50;;;;;;;45.08;11.26;99287.30;1686284;83;21630;-75
2022/07/21 08:49:54;;;;;;;2.15;0.80;;;;;;;45.64;10.77;99275.88;1696427;83;21409;-76
2022/07/21 08:52:21;;;;;;;1.57;0.45;;;;;;;45.85;10.88;99272.15;1696288;83;20902;-76
2022/07/21 08:54:47;;;;;;;2.50;0.60;;;;;;;46.20;10.57;99271.95;1696371;83;21543;-76
2022/07/21 08:57:14;;;;;;;1.75;0.50;;;;;;;45.99;10.61;99280.50;1696458;83;21586;-76
2022/07/21 08:59:40;;;;;;;2.77;0.90;;;;;;;45.93;10.96;99277.92;1696482;83;21211;-77
2022/07/21 09:02:30;;;;;;;1.10;0.57;;;;;;;46.11;10.68;99280.63;1696334;83;21005;-76
2022/07/21 09:04:57;;;;;;;0.60;0.53;;;;;;;46.07;10.43;99283.48;1692340;83;20981;-77
2022/07/21 09:07:23;;;;;;;2.05;0.78;;;;;;;45.37;10.68;99279.78;1696479;83;20950;-75
2022/07/21 09:10:00;;;;;;;0.60;0.40;;;;;;;45.18;11.03;99288.67;1696389;83;20887;-76
2022/07/21 09:12:27;;;;;;;;;;;;;;;45.39;10.82;99285.78;1703180;82;21734;-75
2022/07/21 09:15:14;;;;;;;;;;;;;;;45.41;10.82;99277.57;1706470;82;20431;-76
2022/07/21 09:17:40;;;;;;;;;;;;;;;45.47;10.79;99282.97;1715387;82;20415;-78
2022/07/21 09:20:21;;;;;;;;;;;;;;;45.35;10.81;99279.40;1673224;84;20150;-77
2022/07/21 09:23:11;;;;;;;;;;;;;;;45.30;10.75;99274.80;1651387;85;20094;-74
2022/07/21 09:25:48;;;;;;;;;;;;;;;45.29;10.85;99276.03;1657600;85;20130;-75
2022/07/21 09:28:20;;;;;;;;;;;;;;;44.41;11.33;99280.30;1639893;86;38831;-77
2022/07/21 09:30:49;;;;;;;;;;;;;;;43.37;11.84;99271.43;1664601;85;20106;-78
2022/07/21 09:33:21;;;;;;;;;;;;;;;41.91;12.76;99266.46;1664952;85;20463;-77
2022/07/21 09:36:08;;;;;;;;;;;;;;;40.39;13.76;99274.05;1664979;85;20463;-76
2022/07/21 09:38:36;;;;;;;;;;;;;;;38.95;15.14;99272.52;1656012;85;20776;-75
2022/07/21 09:41:17;;;;;;;;;;;;;;;37.55;16.17;99272.60;1658883;85;20176;-77
2022/07/21 09:43:46;;;;;;;;;;;;;;;36.49;17.15;99275.66;1665024;85;20450;-76
2022/07/21 09:46:15;;;;;;;;;;;;;;;35.60;18.14;99274.25;1664765;85;20086;-77
2022/07/21 09:48:46;;;;;;;;;;;;;;;34.86;18.87;99271.38;1665115;85;20432;-76
2022/07/21 09:51:28;;;;;;;;;;;;;;;34.16;19.58;99271.43;1663222;85;21144;-76
2022/07/21 09:54:05;;;;;;;;;;;;;;;33.68;19.73;99268.95;1657537;85;20114;-77
2022/07/21 09:56:35;;;;;;;;;;;;;;;33.08;20.25;99263.98;1675619;85;20090;-77
2022/07/21 09:59:03;;;;;;;;;;;;;;;32.67;20.56;99266.55;1666561;85;20089;-76
2022/07/21 10:01:29;;;;;;;;;;;;;;;32.35;21.32;99261.41;1666177;85;20097;-75
2022/07/21 10:03:56;;;;;;;;;;;;;;;32.12;21.88;99261.23;1665063;85;21190;-75
2022/07/21 10:06:29;;;;;;;;;;;;;;;31.94;22.21;99259.49;1664948;85;20463;-75
2022/07/21 10:08:55;;;;;;;;;;;;;;;31.70;22.71;99259.25;1666929;85;20150;-78
2022/07/21 10:11:22;;;;;;;;;;;;;;;31.60;23.22;99267.75;1667591;85;20122;-75
2022/07/21 10:13:50;;;;;;;;;;;;;;;31.55;23.37;99258.27;1653695;85;20428;-77
2022/07/21 10:16:16;;;;;;;;;;;;;;;31.41;23.43;99254.75;1653987;85;21229;-76
2022/07/21 10:18:46;;;;;;;;;;;;;;;31.33;23.96;99255.49;1660055;85;20090;-76
2022/07/21 10:21:50;;;;;;;;;;;;;;;31.32;23.87;99251.66;1659236;85;20079;-77
2022/07/21 10:24:16;;;;;;;;;;;;;;;31.24;24.14;99255.16;1644852;85;20209;-77
2022/07/21 10:27:06;;;;;;;;;;;;;;;31.24;24.50;99254.59;1652436;85;20106;-78
2022/07/21 10:30:00;;;;;;;;;;;;;;;31.21;23.89;99253.05;1636828;86;21290;-75
2022/07/21 10:32:35;;;;;;;;;;;;;;;30.99;23.57;99261.50;1697643;83;20435;-76
2022/07/21 10:35:05;;;;;;;;;;;;;;;30.73;23.15;99252.72;1664794;85;20100;-76
2022/07/21 10:37:40;;;;;;;;;;;;;;;30.55;23.43;99258.05;1645216;85;20119;-76
2022/07/21 10:40:23;;;;;;;;;;;;;;;30.40;23.60;99263.81;1669617;84;20455;-76
2022/07/21 10:43:02;;;;;;;;;;;;;;;30.30;24.00;99261.80;1669915;84;21111;-75
2022/07/21 10:45:31;;;;;;;;;;;;;;;30.28;24.74;99258.55;1664679;84;20116;-75
2022/07/21 10:47:58;;;;;;;;;;;;;;;30.27;25.09;99249.50;1649391;85;20467;-77
2022/07/21 10:50:30;;;;;;;;;;;;;;;30.22;24.92;99244.12;1669816;84;20101;-76
2022/07/21 10:52:59;;;;;;;;;;;;;;;30.18;25.12;99243.66;1663411;85;20107;-77
2022/07/21 10:55:27;;;;;;;;;;;;;;;30.02;25.16;99240.95;1639162;85;21162;-77
2022/07/21 10:58:18;;;;;;;;;;;;;;;29.88;25.41;99235.44;1647752;85;20102;-75
2022/07/21 11:00:45;;;;;;;;;;;;;;;29.87;25.77;99238.77;1668197;84;20197;-78
2022/07/21 11:03:18;;;;;;;;;;;;;;;29.89;26.15;99240.64;1664753;84;20429;-77
2022/07/21 11:06:08;;;;;;;;;;;;;;;29.93;26.59;99232.05;1647883;85;20428;-77
2022/07/21 11:08:42;;;;;;;;;;;;;;;29.93;26.13;99236.16;1640043;85;20166;-75
2022/07/21 11:11:15;;;;;;;;;;;;;;;29.86;25.40;99234.38;1647622;85;20480;-77
2022/07/21 11:14:09;;;;;;;;;;;;;;;29.80;25.70;99232.05;1664778;85;20462;-76
2022/07/21 11:16:54;;;;;;;;;;;;;;;29.77;25.97;99218.91;1651734;85;20147;-75
2022/07/21 11:19:39;;;;;;;;;;;;;;;29.80;26.05;99219.72;1673661;84;20113;-77
2022/07/21 11:22:16;;;;;;;;;;;;;;;29.84;26.51;99216.61;1660588;85;21724;-75
2022/07/21 11:24:45;;;;;;;;;;;;;;;29.90;26.07;99221.68;1664654;85;20435;-78
2022/07/21 11:27:17;;;;;;;;;;;;;;;29.86;25.99;99215.74;1682017;84;20118;-77
2022/07/21 11:29:45;;;;;;;;;;;;;;;29.80;25.58;99216.39;1664628;85;20507;-77
2022/07/21 11:32:11;;;;;;;;;;;;;;;29.76;25.44;99212.61;1664677;84;20098;-76
2022/07/21 11:34:51;;;;;;;;;;;;;;;29.70;25.20;99212.98;1664681;84;21170;-76
2022/07/21 11:37:23;;;;;;;;;;;;;;;29.64;25.65;99212.30;1664503;85;20105;-77
2022/07/21 11:39:50;;;;;;;;;;;;;;;29.57;25.74;99203.63;1654727;84;20094;-77
2022/07/21 11:42:16;;;;;;;;;;;;;;;29.50;26.34;99203.76;1664680;85;20129;-77
2022/07/21 11:44:43;;;;;;;;;;;;;;;29.50;26.43;99196.91;1664657;85;20130;-77
2022/07/21 11:47:13;;;;;;;;;;;;;;;29.52;26.32;99205.08;1667509;84;20558;-76
2022/07/21 11:49:40;;;;;;;;;;;;;;;29.50;26.35;99198.28;1664698;84;20122;-76
2022/07/21 11:52:08;;;;;;;;;;;;;;;29.48;26.63;99200.52;1664637;85;20144;-77
2022/07/21 11:54:45;;;;;;;;;;;;;;;29.50;27.39;99200.47;1656721;85;20180;-77
2022/07/21 11:57:11;;;;;;;;;;;;;;;29.57;27.75;99196.77;1664783;84;20094;-77
2022/07/21 11:59:40;;;;;;;;;;;;;;;29.62;26.71;99202.75;1664867;85;21804;-76